»·PEaware :: SWA622 KSAN-KSFO

SWA622 :: KSAN-KSFO

FLIGHT INFORMATION

Flight Status: Arrived
Operator:
Southwest Airlines
More flights by this operator :: More flights under this callsign
Pilot: Judson K. (15650)
Aircraft: BOEING 737-300
(B733)
More flights by this aircraft type
Origin: KSAN San Diego Intl-Lindbergh
United States
Destination: KSFO San Francisco Intl
United States
More flights between these airports :: More routes between these airports
Route: PADRZ1 IKAYE RIZIN SPLNT STOKD SERFR SERFR2
File this flight plan on PilotEdge
Remarks: PBN / A1B3B4B5D3D4 DOF / 171013 REG / N372SB EET / KZOA0041 OPR / SWA RMK / TCAS SIMBRIEF
Altitude:
(Current/Filed)
36,000ft
Speed:
(Current/Filed)
436kts
Departed: 12-Oct-17 05:25 PM
Arrived: 12-Oct-17 06:38 PM
Distance/Time
Traveled:
388nm/1:13
Distance/Time
To Go:
Arrived

Flight Plot

Page will automatically refresh every two minutes.

Flight plan parsing failed; only flown route is shown


Map Options




Map Legend


Flown Route
Filed Route
Departure Airport
Arrival Airport
Navaid (VOR, NDB)
Fix

Horizontal Profiles

Position Reports

Time Latitude Longitude Heading Altitude Ground
Speed
12-Oct-17 16:55 32.733815 -117.198136 204 24ft 0kts
12-Oct-17 16:56 32.733815 -117.198136 204 24ft 0kts
12-Oct-17 16:57 32.733815 -117.198136 204 24ft 0kts
12-Oct-17 16:58 32.733815 -117.198136 204 24ft 0kts
12-Oct-17 16:59 32.733815 -117.198136 204 24ft 0kts
12-Oct-17 17:00 32.733815 -117.198136 204 24ft 0kts
12-Oct-17 17:01 32.733815 -117.198136 204 24ft 0kts
12-Oct-17 17:02 32.733815 -117.198136 204 24ft 0kts
12-Oct-17 17:03 32.733815 -117.198136 204 24ft 0kts
12-Oct-17 17:04 32.733815 -117.198136 204 24ft 0kts
12-Oct-17 17:05 32.733815 -117.198136 204 24ft 0kts
12-Oct-17 17:06 32.733815 -117.198136 204 24ft 0kts
12-Oct-17 17:07 32.733815 -117.198136 204 24ft 0kts
12-Oct-17 17:08 32.733815 -117.198136 204 24ft 0kts
12-Oct-17 17:09 32.733815 -117.198136 204 24ft 0kts
12-Oct-17 17:10 32.733815 -117.198136 204 24ft 0kts
12-Oct-17 17:11 32.733815 -117.198136 204 24ft 0kts
12-Oct-17 17:12 32.733815 -117.198136 204 24ft 0kts
12-Oct-17 17:13 32.733815 -117.198136 204 24ft 0kts
12-Oct-17 17:14 32.733815 -117.198136 204 24ft 0kts
12-Oct-17 17:15 32.733815 -117.198136 204 24ft 0kts
12-Oct-17 17:16 32.733815 -117.198136 204 24ft 0kts
12-Oct-17 17:17 32.733815 -117.198136 204 24ft 0kts
12-Oct-17 17:17 32.733815 -117.198136 204 24ft 0kts
12-Oct-17 17:19 32.733815 -117.198136 204 24ft 0kts
12-Oct-17 17:20 32.733815 -117.198136 204 24ft 0kts
12-Oct-17 17:21 32.733943 -117.198067 204 24ft 0kts
12-Oct-17 17:21 32.734354 -117.197848 204 24ft 0kts
12-Oct-17 17:23 32.734504 -117.197767 204 24ft 0kts
12-Oct-17 17:24 32.734282 -117.197267 105 24ft 10kts
12-Oct-17 17:24 32.733300 -117.192920 106 24ft 18kts
12-Oct-17 17:26 32.731376 -117.184930 106 24ft 24kts
12-Oct-17 17:26 32.729711 -117.178103 106 24ft 27kts
12-Oct-17 17:27 32.729518 -117.176724 71 24ft 0kts
12-Oct-17 17:28 32.729903 -117.175867 21 24ft 9kts
12-Oct-17 17:29 32.734376 -117.193142 285 121ft 157kts
12-Oct-17 17:30 32.760586 -117.249865 302 2206ft 233kts
12-Oct-17 17:31 32.798781 -117.318275 304 5286ft 261kts
12-Oct-17 17:32 32.843776 -117.387399 306 8189ft 277kts
12-Oct-17 17:33 32.891602 -117.461152 306 10552ft 300kts
12-Oct-17 17:34 32.947270 -117.547091 306 11373ft 339kts
12-Oct-17 17:35 33.003895 -117.635822 305 13456ft 337kts
12-Oct-17 17:36 33.059846 -117.723229 306 14690ft 355kts
12-Oct-17 17:37 33.123228 -117.790219 316 15200ft 359kts
12-Oct-17 17:38 33.199250 -117.868073 311 17634ft 365kts
12-Oct-17 17:39 33.271586 -117.954559 309 19967ft 373kts
12-Oct-17 17:40 33.344990 -118.042247 308 22117ft 380kts
12-Oct-17 17:41 33.419773 -118.132101 308 24036ft 387kts
12-Oct-17 17:42 33.491934 -118.218669 308 25691ft 395kts
12-Oct-17 17:43 33.560421 -118.301226 307 27210ft 399kts
12-Oct-17 17:44 33.629317 -118.398896 302 28881ft 395kts
12-Oct-17 17:45 33.698350 -118.497838 301 30783ft 385kts
12-Oct-17 17:46 33.766470 -118.595751 301 32211ft 383kts
12-Oct-17 17:47 33.831713 -118.689496 300 33463ft 379kts
12-Oct-17 17:48 33.898525 -118.785650 300 34731ft 373kts
12-Oct-17 17:49 33.964645 -118.881022 300 35675ft 371kts
12-Oct-17 17:50 34.030926 -118.976928 300 35983ft 377kts
12-Oct-17 17:51 34.097592 -119.073561 300 35982ft 376kts
12-Oct-17 17:52 34.162004 -119.166768 300 35981ft 377kts
12-Oct-17 17:53 34.228040 -119.262994 300 35974ft 376kts
12-Oct-17 17:54 34.293719 -119.358971 299 35970ft 371kts
12-Oct-17 17:55 34.359112 -119.454862 299 35974ft 373kts
12-Oct-17 17:56 34.425641 -119.550373 303 35953ft 377kts
12-Oct-17 17:57 34.499524 -119.641482 304 35956ft 379kts
12-Oct-17 17:58 34.571502 -119.730279 303 35956ft 378kts
12-Oct-17 17:59 34.644566 -119.820475 303 35954ft 377kts
12-Oct-17 18:00 34.717601 -119.910875 303 36004ft 378kts
12-Oct-17 18:01 34.790365 -120.001127 303 36002ft 374kts
12-Oct-17 18:02 34.862414 -120.090803 303 36002ft 375kts
12-Oct-17 18:03 34.934805 -120.181114 303 36001ft 375kts
12-Oct-17 18:04 35.007271 -120.271774 303 36011ft 374kts
12-Oct-17 18:05 35.079392 -120.362239 303 36011ft 374kts
12-Oct-17 18:06 35.153676 -120.447115 306 36011ft 378kts
12-Oct-17 18:07 35.230698 -120.533354 306 36021ft 379kts
12-Oct-17 18:08 35.306970 -120.619023 306 36015ft 375kts
12-Oct-17 18:09 35.382952 -120.704613 305 36046ft 376kts
12-Oct-17 18:10 35.459096 -120.790409 305 36039ft 375kts
12-Oct-17 18:11 35.540520 -120.871502 311 36087ft 383kts
12-Oct-17 18:12 35.624490 -120.949405 310 36081ft 382kts
12-Oct-17 18:13 35.708446 -121.027768 310 36086ft 382kts
12-Oct-17 18:14 35.792464 -121.106083 310 36088ft 378kts
12-Oct-17 18:15 35.875268 -121.183568 310 36084ft 379kts
12-Oct-17 18:16 35.958848 -121.261916 310 36084ft 378kts
12-Oct-17 18:17 36.041713 -121.339814 310 35906ft 376kts
12-Oct-17 18:18 36.126107 -121.410445 316 32886ft 389kts
12-Oct-17 18:19 36.216125 -121.480278 317 30108ft 385kts
12-Oct-17 18:20 36.305593 -121.550067 318 27390ft 392kts
12-Oct-17 18:21 36.394553 -121.620036 319 25325ft 372kts
12-Oct-17 18:22 36.482178 -121.689154 319 23278ft 368kts
12-Oct-17 18:24 36.566270 -121.755986 321 21332ft 368kts
12-Oct-17 18:25 36.649905 -121.822124 322 19317ft 350kts
12-Oct-17 18:26 36.730919 -121.886373 324 17308ft 347kts
12-Oct-17 18:27 36.809396 -121.915553 344 16085ft 343kts
12-Oct-17 18:28 36.900551 -121.939910 346 14220ft 332kts
12-Oct-17 18:29 36.988541 -121.967879 342 11615ft 342kts
12-Oct-17 18:30 37.071608 -122.000427 342 10361ft 293kts
12-Oct-17 18:31 37.140191 -122.027128 342 9766ft 247kts
12-Oct-17 18:32 37.207871 -122.053273 342 9081ft 266kts
12-Oct-17 18:33 37.276853 -122.080264 341 7605ft 256kts
12-Oct-17 18:34 37.342596 -122.106399 342 6281ft 245kts
12-Oct-17 18:35 37.406235 -122.131397 342 5004ft 248kts
12-Oct-17 18:36 37.470158 -122.155870 346 3976ft 235kts
12-Oct-17 18:37 37.526625 -122.171988 334 3412ft 183kts
12-Oct-17 18:38 37.552949 -122.216356 296 2526ft 136kts
12-Oct-17 18:39 37.569420 -122.258100 299 1812ft 130kts
12-Oct-17 18:40 37.585810 -122.296084 295 1156ft 125kts
12-Oct-17 18:41 37.601546 -122.334273 295 488ft 123kts
12-Oct-17 18:42 37.616765 -122.370525 296 20ft 78kts
12-Oct-17 18:43 37.619589 -122.379393 225 20ft 2kts
12-Oct-17 18:44 37.617450 -122.379436 182 20ft 14kts
12-Oct-17 18:45 37.615438 -122.380418 207 20ft 14kts
12-Oct-17 18:46 37.610684 -122.384198 272 20ft 24kts
12-Oct-17 18:47 37.611932 -122.385363 355 20ft 0kts
12-Oct-17 18:48 37.611932 -122.385363 355 20ft 0kts
12-Oct-17 18:49 37.611932 -122.385363 355 20ft 0kts

Navigation Log

Ident Type
Flight plan parsing failed, navigation log unavailable